Time;durP1;ratioP1;P1;durP2;ratioP2;P2;SDS_P1;SDS_P2;PMS_P1;PMS_P2;Temp;Humidity;BMP_temperature;BMP_pressure;BME280_temperature;BME280_humidity;BME280_pressure;Samples;Min_cycle;Max_cycle;Signal;HPM_P1;HPM_P2
2023/07/15 00:01:20;;;;;;;6.30;3.95;;;;;;;;;;5093840;28;20044;-72
2023/07/15 00:03:47;;;;;;;7.05;3.88;;;;;;;;;;5076846;28;20054;-72
2023/07/15 00:06:13;;;;;;;8.25;4.13;;;;;;;;;;5093774;28;20044;-72
2023/07/15 00:08:40;;;;;;;7.55;3.95;;;;;;;;;;5093815;28;20044;-73
2023/07/15 00:11:06;;;;;;;10.38;4.03;;;;;;;;;;5095282;28;20050;-73
2023/07/15 00:13:32;;;;;;;5.63;3.88;;;;;;;;;;5093886;28;20036;-73
2023/07/15 00:15:58;;;;;;;6.88;3.92;;;;;;;;;;5092863;28;20052;-73
2023/07/15 00:18:25;;;;;;;5.25;3.50;;;;;;;;;;5093239;28;20087;-73
2023/07/15 00:20:51;;;;;;;6.65;3.50;;;;;;;;;;5093455;28;20044;-73
2023/07/15 00:23:22;;;;;;;5.72;3.20;;;;;;;;;;5076362;28;20051;-73
2023/07/15 00:25:50;;;;;;;7.50;3.47;;;;;;;;;;5093302;28;20058;-72
2023/07/15 00:28:16;;;;;;;9.32;3.50;;;;;;;;;;5092791;28;21318;-73
2023/07/15 00:30:42;;;;;;;8.07;3.60;;;;;;;;;;5092895;28;20036;-73
2023/07/15 00:33:15;;;;;;;8.10;3.63;;;;;;;;;;5093023;28;20036;-73
2023/07/15 00:35:42;;;;;;;4.90;3.28;;;;;;;;;;5076302;28;20493;-72
2023/07/15 00:38:10;;;;;;;8.30;3.53;;;;;;;;;;5093088;28;20085;-72
2023/07/15 00:40:44;;;;;;;5.60;3.30;;;;;;;;;;5075846;28;20032;-72
2023/07/15 00:43:29;;;;;;;6.97;3.20;;;;;;;;;;5092888;28;20149;-72
2023/07/15 00:46:28;;;;;;;7.88;4.07;;;;;;;;;;5093259;28;20123;-73
2023/07/15 00:49:00;;;;;;;6.35;3.33;;;;;;;;;;5050480;28;20062;-72
2023/07/15 00:51:27;;;;;;;6.28;3.15;;;;;;;;;;5075769;28;20032;-72
2023/07/15 00:53:53;;;;;;;5.22;3.30;;;;;;;;;;5076033;28;20043;-73
2023/07/15 00:56:20;;;;;;;5.80;2.90;;;;;;;;;;5092539;28;20043;-73
2023/07/15 00:58:47;;;;;;;6.78;3.10;;;;;;;;;;5092120;28;20072;-72
2023/07/15 01:01:13;;;;;;;7.72;3.50;;;;;;;;;;5092930;28;20052;-73
2023/07/15 01:03:40;;;;;;;8.00;3.55;;;;;;;;;;5075621;28;20040;-72
2023/07/15 01:06:06;;;;;;;8.55;3.35;;;;;;;;;;5076354;28;20526;-73
2023/07/15 01:08:32;;;;;;;4.82;3.00;;;;;;;;;;5092211;28;20400;-72
2023/07/15 01:10:59;;;;;;;6.82;3.45;;;;;;;;;;5090846;28;20533;-73
2023/07/15 01:13:25;;;;;;;6.38;3.22;;;;;;;;;;5092437;28;20507;-74
2023/07/15 01:15:51;;;;;;;7.93;3.20;;;;;;;;;;5092214;28;20123;-72
2023/07/15 01:18:17;;;;;;;7.50;3.10;;;;;;;;;;5091895;28;20040;-73
2023/07/15 01:20:43;;;;;;;6.40;3.00;;;;;;;;;;5091797;28;20062;-73
2023/07/15 01:23:09;;;;;;;7.55;3.38;;;;;;;;;;5072408;28;20469;-73
2023/07/15 01:25:36;;;;;;;5.22;3.10;;;;;;;;;;5091588;28;20043;-72
2023/07/15 01:28:02;;;;;;;8.63;3.65;;;;;;;;;;5092525;28;20480;-73
2023/07/15 01:30:29;;;;;;;5.25;3.50;;;;;;;;;;5092499;28;20477;-73
2023/07/15 01:32:55;;;;;;;11.00;4.05;;;;;;;;;;5093371;28;20047;-72
2023/07/15 01:35:22;;;;;;;5.93;3.10;;;;;;;;;;5092726;28;20032;-73
2023/07/15 01:37:48;;;;;;;5.90;3.50;;;;;;;;;;5092621;28;20051;-73
2023/07/15 01:40:14;;;;;;;10.07;3.25;;;;;;;;;;5092337;28;20090;-73
2023/07/15 01:42:40;;;;;;;9.23;3.35;;;;;;;;;;5093123;28;20048;-72
2023/07/15 01:45:10;;;;;;;8.38;3.25;;;;;;;;;;5075546;28;20515;-73
2023/07/15 01:47:39;;;;;;;7.32;2.88;;;;;;;;;;5091815;28;20044;-73
2023/07/15 01:50:05;;;;;;;7.18;3.17;;;;;;;;;;5090248;28;20169;-72
2023/07/15 01:52:32;;;;;;;6.63;3.40;;;;;;;;;;5091203;28;20497;-73
2023/07/15 01:54:58;;;;;;;8.02;2.95;;;;;;;;;;5091691;28;20071;-72
2023/07/15 01:57:26;;;;;;;5.53;3.08;;;;;;;;;;5091394;28;20048;-73
2023/07/15 01:59:57;;;;;;;7.05;2.90;;;;;;;;;;5091953;28;20079;-73
2023/07/15 02:02:27;;;;;;;7.47;3.08;;;;;;;;;;5086849;28;20552;-73
2023/07/15 02:04:53;;;;;;;5.00;3.25;;;;;;;;;;5091421;28;20052;-73
2023/07/15 02:07:19;;;;;;;8.07;2.92;;;;;;;;;;5090238;28;20044;-72
2023/07/15 02:09:45;;;;;;;4.45;2.90;;;;;;;;;;5091380;28;20040;-73
2023/07/15 02:12:11;;;;;;;10.20;2.97;;;;;;;;;;5074700;28;20063;-72
2023/07/15 02:14:37;;;;;;;5.47;3.00;;;;;;;;;;5090993;28;20124;-73
2023/07/15 02:17:03;;;;;;;6.60;2.72;;;;;;;;;;5074212;28;20043;-73
2023/07/15 02:19:33;;;;;;;10.07;2.63;;;;;;;;;;5074816;28;20485;-72
2023/07/15 02:21:59;;;;;;;10.13;3.10;;;;;;;;;;5091395;28;20048;-72
2023/07/15 02:24:26;;;;;;;7.30;3.10;;;;;;;;;;5091003;28;20369;-73
2023/07/15 02:26:52;;;;;;;7.90;3.00;;;;;;;;;;5092322;28;20036;-73
2023/07/15 02:29:18;;;;;;;5.45;2.85;;;;;;;;;;5091560;28;20111;-73
2023/07/15 02:31:44;;;;;;;7.18;2.90;;;;;;;;;;5091279;28;20040;-72
2023/07/15 02:34:13;;;;;;;6.32;3.50;;;;;;;;;;5090905;28;20032;-73
2023/07/15 02:36:39;;;;;;;5.60;2.90;;;;;;;;;;5091990;28;20119;-73
2023/07/15 02:39:05;;;;;;;5.97;2.65;;;;;;;;;;5091212;28;20073;-72
2023/07/15 02:41:32;;;;;;;5.60;2.90;;;;;;;;;;5074251;28;20040;-73
2023/07/15 02:43:59;;;;;;;8.18;3.00;;;;;;;;;;5091371;28;20366;-73
2023/07/15 02:46:25;;;;;;;7.97;3.05;;;;;;;;;;5090198;28;20054;-73
2023/07/15 02:48:51;;;;;;;7.15;3.17;;;;;;;;;;5090584;28;20050;-73
2023/07/15 02:51:19;;;;;;;8.10;3.10;;;;;;;;;;5074184;28;20040;-72
2023/07/15 02:53:46;;;;;;;6.13;2.90;;;;;;;;;;5091934;28;20115;-73
2023/07/15 02:56:12;;;;;;;6.40;3.00;;;;;;;;;;5074213;28;20532;-72
2023/07/15 02:58:40;;;;;;;7.03;2.72;;;;;;;;;;5091752;28;20042;-72
2023/07/15 03:01:08;;;;;;;7.28;2.70;;;;;;;;;;5090893;28;20051;-72
2023/07/15 03:03:34;;;;;;;6.05;2.97;;;;;;;;;;5090772;28;20500;-72
2023/07/15 03:06:03;;;;;;;6.90;3.03;;;;;;;;;;5092083;28;20032;-72
2023/07/15 03:08:31;;;;;;;5.22;2.92;;;;;;;;;;5090441;28;20075;-73
2023/07/15 03:10:57;;;;;;;5.15;2.90;;;;;;;;;;5091266;28;20036;-72
2023/07/15 03:13:25;;;;;;;7.53;2.78;;;;;;;;;;5074113;28;20436;-73
2023/07/15 03:15:52;;;;;;;4.78;2.80;;;;;;;;;;5090501;28;20055;-73
2023/07/15 03:18:21;;;;;;;6.97;2.85;;;;;;;;;;5090619;28;20499;-73
2023/07/15 03:20:47;;;;;;;5.80;3.10;;;;;;;;;;5090375;28;20055;-73
2023/07/15 03:23:13;;;;;;;6.28;3.10;;;;;;;;;;5090638;28;20066;-73
2023/07/15 03:25:39;;;;;;;6.63;3.22;;;;;;;;;;5091759;28;20055;-73
2023/07/15 03:28:05;;;;;;;5.57;2.95;;;;;;;;;;5090518;28;20132;-73
2023/07/15 03:30:31;;;;;;;4.47;3.10;;;;;;;;;;5090394;28;20113;-73
2023/07/15 03:32:58;;;;;;;4.55;2.65;;;;;;;;;;5091931;28;20051;-73
2023/07/15 03:35:24;;;;;;;7.28;3.08;;;;;;;;;;5073872;28;20051;-73
2023/07/15 03:37:50;;;;;;;6.53;3.17;;;;;;;;;;5090081;28;20109;-73
2023/07/15 03:40:16;;;;;;;6.22;3.03;;;;;;;;;;5073439;28;20040;-73
2023/07/15 03:42:43;;;;;;;4.85;2.80;;;;;;;;;;5090479;28;20056;-73
2023/07/15 03:45:09;;;;;;;4.95;3.25;;;;;;;;;;5073815;28;20109;-73
2023/07/15 03:47:36;;;;;;;6.15;2.95;;;;;;;;;;5073371;28;20044;-72
2023/07/15 03:50:03;;;;;;;6.28;3.00;;;;;;;;;;5090325;28;20059;-72
2023/07/15 03:52:29;;;;;;;7.10;3.05;;;;;;;;;;5089629;28;20039;-72
2023/07/15 03:54:56;;;;;;;4.15;2.75;;;;;;;;;;5091666;28;20036;-72
2023/07/15 03:57:22;;;;;;;6.85;3.17;;;;;;;;;;5090618;28;20044;-72
2023/07/15 03:59:48;;;;;;;5.45;2.88;;;;;;;;;;5093441;28;20032;-72
2023/07/15 04:02:17;;;;;;;5.88;2.95;;;;;;;;;;5092913;28;20506;-72
2023/07/15 04:04:44;;;;;;;7.93;3.83;;;;;;;;;;5093298;28;20040;-73
2023/07/15 04:07:10;;;;;;;4.72;2.85;;;;;;;;;;5093091;28;20044;-72
2023/07/15 04:09:36;;;;;;;5.90;2.95;;;;;;;;;;5093834;28;20508;-71
2023/07/15 04:12:03;;;;;;;8.20;3.00;;;;;;;;;;5093593;28;20039;-72
2023/07/15 04:14:29;;;;;;;4.97;2.70;;;;;;;;;;5093871;28;20143;-72
2023/07/15 04:16:55;;;;;;;5.40;2.80;;;;;;;;;;5093281;28;20055;-71
2023/07/15 04:19:21;;;;;;;6.85;2.95;;;;;;;;;;5093247;28;20056;-71
2023/07/15 04:21:47;;;;;;;9.93;3.28;;;;;;;;;;5093787;28;20491;-72
2023/07/15 04:24:13;;;;;;;6.32;2.80;;;;;;;;;;5076788;28;20048;-72
2023/07/15 04:26:39;;;;;;;4.28;2.70;;;;;;;;;;5093460;28;20048;-72
2023/07/15 04:29:06;;;;;;;9.77;2.90;;;;;;;;;;5093342;28;20488;-73
2023/07/15 04:31:32;;;;;;;6.72;2.60;;;;;;;;;;5093510;28;20079;-72
2023/07/15 04:33:58;;;;;;;4.43;2.80;;;;;;;;;;5093051;28;20036;-72
2023/07/15 04:36:24;;;;;;;6.10;2.78;;;;;;;;;;5076996;28;20088;-73
2023/07/15 04:38:50;;;;;;;5.30;2.70;;;;;;;;;;5092981;28;20094;-72
2023/07/15 04:41:16;;;;;;;5.50;2.70;;;;;;;;;;5093949;28;20040;-73
2023/07/15 04:43:43;;;;;;;8.25;2.70;;;;;;;;;;5093389;28;20440;-72
2023/07/15 04:46:09;;;;;;;6.07;2.70;;;;;;;;;;5093370;28;20105;-73
2023/07/15 04:48:35;;;;;;;8.20;3.00;;;;;;;;;;5093436;28;20044;-72
2023/07/15 04:51:01;;;;;;;6.07;2.83;;;;;;;;;;5093591;28;20487;-72
2023/07/15 04:53:27;;;;;;;4.38;2.50;;;;;;;;;;5093056;28;20052;-72
2023/07/15 04:55:53;;;;;;;6.75;3.42;;;;;;;;;;5092749;28;20043;-72
2023/07/15 04:58:20;;;;;;;7.68;3.20;;;;;;;;;;5093359;28;20396;-73
2023/07/15 05:00:46;;;;;;;4.95;2.53;;;;;;;;;;5075802;28;20051;-73
2023/07/15 05:03:12;;;;;;;5.18;2.70;;;;;;;;;;5092644;28;20047;-72
2023/07/15 05:05:40;;;;;;;17.45;3.10;;;;;;;;;;5092941;28;20118;-73
2023/07/15 05:08:17;;;;;;;7.95;2.63;;;;;;;;;;5092516;28;20313;-73
2023/07/15 05:10:44;;;;;;;4.25;2.88;;;;;;;;;;5091838;28;20047;-73
2023/07/15 05:13:10;;;;;;;6.15;2.80;;;;;;;;;;5092279;28;20423;-72
2023/07/15 05:15:37;;;;;;;5.55;2.70;;;;;;;;;;5093929;28;20048;-73
2023/07/15 05:18:04;;;;;;;6.68;2.60;;;;;;;;;;5092486;28;20048;-73
2023/07/15 05:20:31;;;;;;;8.27;2.75;;;;;;;;;;5078782;28;20082;-73
2023/07/15 05:22:57;;;;;;;5.72;3.08;;;;;;;;;;5091831;28;20051;-73
2023/07/15 05:25:23;;;;;;;7.15;3.03;;;;;;;;;;5092353;28;20036;-72
2023/07/15 05:27:50;;;;;;;7.32;2.80;;;;;;;;;;5092200;28;20076;-73
2023/07/15 05:30:16;;;;;;;4.45;2.67;;;;;;;;;;5092372;28;20059;-73
2023/07/15 05:32:42;;;;;;;9.82;3.20;;;;;;;;;;5092390;28;20039;-72
2023/07/15 05:35:09;;;;;;;5.93;2.70;;;;;;;;;;5091496;28;20075;-72
2023/07/15 05:37:35;;;;;;;6.53;2.85;;;;;;;;;;5092419;28;20075;-73
2023/07/15 05:40:01;;;;;;;6.07;2.70;;;;;;;;;;5092028;28;20087;-73
2023/07/15 05:42:27;;;;;;;4.03;2.67;;;;;;;;;;5092248;28;20054;-72
2023/07/15 05:44:53;;;;;;;7.82;2.92;;;;;;;;;;5073248;28;20044;-72
2023/07/15 05:47:19;;;;;;;6.22;2.60;;;;;;;;;;5092067;28;20072;-73
2023/07/15 05:49:45;;;;;;;5.07;2.53;;;;;;;;;;5092240;28;20050;-73
2023/07/15 05:52:11;;;;;;;6.28;2.90;;;;;;;;;;5091712;28;20040;-72
2023/07/15 05:54:37;;;;;;;7.10;2.75;;;;;;;;;;5091673;28;20040;-73
2023/07/15 05:57:03;;;;;;;5.50;2.78;;;;;;;;;;5090450;28;20038;-71
2023/07/15 05:59:29;;;;;;;5.60;2.70;;;;;;;;;;5091434;28;20039;-72
2023/07/15 06:01:55;;;;;;;8.77;2.60;;;;;;;;;;5092026;28;20492;-72
2023/07/15 06:04:21;;;;;;;6.82;2.88;;;;;;;;;;5075272;28;20412;-71
2023/07/15 06:06:48;;;;;;;5.07;2.70;;;;;;;;;;5091790;28;20534;-72
2023/07/15 06:09:14;;;;;;;6.68;2.67;;;;;;;;;;5092798;28;20040;-72
2023/07/15 06:11:40;;;;;;;4.00;2.22;;;;;;;;;;5091319;28;20043;-72
2023/07/15 06:14:06;;;;;;;4.75;2.47;;;;;;;;;;5091104;28;20501;-72
2023/07/15 06:16:32;;;;;;;3.63;2.40;;;;;;;;;;5091281;28;20408;-72
2023/07/15 06:18:58;;;;;;;5.97;2.63;;;;;;;;;;5090175;28;20044;-72
2023/07/15 06:21:24;;;;;;;4.70;2.67;;;;;;;;;;5091531;28;20040;-72
2023/07/15 06:23:50;;;;;;;6.38;2.30;;;;;;;;;;5073845;28;20493;-73
2023/07/15 06:26:16;;;;;;;4.53;2.20;;;;;;;;;;5089346;28;20071;-72
2023/07/15 06:28:42;;;;;;;5.32;2.33;;;;;;;;;;5072957;28;20036;-73
2023/07/15 06:31:08;;;;;;;4.65;2.35;;;;;;;;;;5089385;28;20141;-72
2023/07/15 06:33:35;;;;;;;5.85;2.33;;;;;;;;;;5090024;28;20042;-72
2023/07/15 06:36:02;;;;;;;8.10;2.33;;;;;;;;;;5089537;28;20040;-72
2023/07/15 06:38:28;;;;;;;3.67;2.00;;;;;;;;;;5071733;28;20488;-71
2023/07/15 06:40:57;;;;;;;8.50;2.15;;;;;;;;;;5090548;28;20454;-71
2023/07/15 06:43:23;;;;;;;9.02;2.40;;;;;;;;;;5072373;28;20051;-72
2023/07/15 06:45:49;;;;;;;6.28;2.28;;;;;;;;;;5092241;28;20112;-71
2023/07/15 06:48:17;;;;;;;5.43;2.20;;;;;;;;;;5090855;28;20044;-71
2023/07/15 06:50:43;;;;;;;5.18;2.00;;;;;;;;;;5074718;28;20067;-71
2023/07/15 06:53:10;;;;;;;13.20;2.72;;;;;;;;;;5072201;28;20040;-71
2023/07/15 06:55:36;;;;;;;5.15;1.98;;;;;;;;;;5092289;28;20508;-72
2023/07/15 06:58:03;;;;;;;4.45;2.13;;;;;;;;;;5072061;28;20043;-71
2023/07/15 07:00:30;;;;;;;4.72;2.28;;;;;;;;;;5091105;28;20050;-71
2023/07/15 07:02:58;;;;;;;5.05;2.13;;;;;;;;;;5091014;28;20052;-71
2023/07/15 07:05:25;;;;;;;6.78;2.10;;;;;;;;;;5074018;28;20512;-70
2023/07/15 07:07:51;;;;;;;5.22;2.17;;;;;;;;;;5090987;28;20235;-71
2023/07/15 07:10:17;;;;;;;5.70;1.88;;;;;;;;;;5090675;28;20036;-71
2023/07/15 07:12:43;;;;;;;4.70;2.10;;;;;;;;;;5090990;28;20044;-71
2023/07/15 07:15:09;;;;;;;5.13;2.03;;;;;;;;;;5090342;28;20064;-70
2023/07/15 07:17:35;;;;;;;4.03;1.80;;;;;;;;;;5073957;28;20044;-72
2023/07/15 07:20:03;;;;;;;3.65;1.80;;;;;;;;;;5074100;28;20089;-72
2023/07/15 07:22:29;;;;;;;5.18;2.00;;;;;;;;;;5090654;28;20047;-72
2023/07/15 07:24:56;;;;;;;4.70;1.88;;;;;;;;;;5092117;28;20040;-71
2023/07/15 07:27:22;;;;;;;3.78;2.00;;;;;;;;;;5091799;28;20044;-72
2023/07/15 07:29:48;;;;;;;4.15;1.77;;;;;;;;;;5091053;28;20493;-71
2023/07/15 07:32:14;;;;;;;3.83;1.90;;;;;;;;;;5091571;28;20059;-71
2023/07/15 07:34:41;;;;;;;5.15;1.80;;;;;;;;;;5096200;28;20066;-71
2023/07/15 07:37:07;;;;;;;4.75;1.60;;;;;;;;;;5095471;28;20040;-71
2023/07/15 07:39:33;;;;;;;3.80;1.60;;;;;;;;;;5096272;28;20040;-71
2023/07/15 07:41:59;;;;;;;4.88;1.85;;;;;;;;;;5094530;28;20044;-72
2023/07/15 07:44:25;;;;;;;9.48;2.20;;;;;;;;;;5095905;28;20032;-71
2023/07/15 07:46:51;;;;;;;3.47;1.80;;;;;;;;;;5095602;28;20123;-71
2023/07/15 07:49:17;;;;;;;4.57;1.50;;;;;;;;;;5094176;28;20058;-72
2023/07/15 07:51:43;;;;;;;4.90;1.63;;;;;;;;;;5094491;28;20040;-72
2023/07/15 07:54:09;;;;;;;3.30;1.65;;;;;;;;;;5094314;28;20443;-71
2023/07/15 07:56:35;;;;;;;2.72;1.40;;;;;;;;;;5095842;28;20039;-72
2023/07/15 07:59:03;;;;;;;3.67;1.60;;;;;;;;;;5095479;28;20083;-72
2023/07/15 08:01:31;;;;;;;4.28;1.55;;;;;;;;;;5094056;28;20051;-72
2023/07/15 08:03:57;;;;;;;3.33;1.35;;;;;;;;;;5094564;28;20501;-71
2023/07/15 08:06:23;;;;;;;4.03;1.50;;;;;;;;;;5093778;28;20074;-72
2023/07/15 08:08:49;;;;;;;5.25;1.50;;;;;;;;;;5094210;28;20044;-71
2023/07/15 08:11:15;;;;;;;5.60;1.40;;;;;;;;;;5095041;28;20036;-71
2023/07/15 08:13:41;;;;;;;2.00;1.10;;;;;;;;;;5094080;28;20050;-71
2023/07/15 08:16:28;;;;;;;2.92;1.48;;;;;;;;;;5094194;28;20066;-71
2023/07/15 08:18:54;;;;;;;2.97;1.60;;;;;;;;;;5094041;28;20047;-70
2023/07/15 08:21:20;;;;;;;3.50;1.30;;;;;;;;;;5094825;28;20068;-71
2023/07/15 08:23:46;;;;;;;2.42;1.27;;;;;;;;;;5093757;28;20062;-71
2023/07/15 08:26:12;;;;;;;2.83;1.30;;;;;;;;;;5095013;28;20543;-71
2023/07/15 08:28:39;;;;;;;4.00;1.30;;;;;;;;;;5093468;28;20040;-70
2023/07/15 08:31:05;;;;;;;3.08;1.27;;;;;;;;;;5093826;28;20040;-70
2023/07/15 08:33:31;;;;;;;3.95;1.25;;;;;;;;;;5093147;28;20247;-71
2023/07/15 08:35:57;;;;;;;5.72;1.20;;;;;;;;;;5093810;28;20076;-71
2023/07/15 08:38:23;;;;;;;2.58;1.27;;;;;;;;;;5076496;28;20437;-71
2023/07/15 08:40:49;;;;;;;4.05;1.30;;;;;;;;;;5093876;28;20040;-71
2023/07/15 08:43:15;;;;;;;4.60;1.40;;;;;;;;;;5076165;28;20044;-71
2023/07/15 08:45:41;;;;;;;6.78;1.40;;;;;;;;;;5093707;28;20070;-72
2023/07/15 08:48:08;;;;;;;6.03;1.35;;;;;;;;;;5093442;28;20519;-71
2023/07/15 08:50:35;;;;;;;3.53;1.30;;;;;;;;;;5076163;28;20048;-70
2023/07/15 08:53:01;;;;;;;6.00;1.45;;;;;;;;;;5093355;28;20044;-71
2023/07/15 08:55:31;;;;;;;3.30;1.30;;;;;;;;;;5093039;28;20054;-72
2023/07/15 08:58:00;;;;;;;3.90;1.20;;;;;;;;;;5095932;28;20041;-71
2023/07/15 09:00:27;;;;;;;2.45;1.20;;;;;;;;;;5092942;28;20057;-71
2023/07/15 09:02:53;;;;;;;3.13;1.42;;;;;;;;;;5093008;28;20044;-71
2023/07/15 09:05:20;;;;;;;3.92;1.80;;;;;;;;;;5094190;28;20028;-71
2023/07/15 09:07:59;;;;;;;3.72;1.40;;;;;;;;;;5093085;28;20052;-71
2023/07/15 09:10:31;;;;;;;5.05;1.45;;;;;;;;;;5082316;28;20542;-70
2023/07/15 09:12:57;;;;;;;3.97;1.88;;;;;;;;;;5094139;28;20081;-71
2023/07/15 09:15:23;;;;;;;3.72;1.50;;;;;;;;;;5092966;28;20385;-71
2023/07/15 09:17:57;;;;;;;3.63;1.30;;;;;;;;;;5076027;28;20052;-71
2023/07/15 09:20:24;;;;;;;11.05;1.45;;;;;;;;;;5092462;28;20036;-72
2023/07/15 09:22:50;;;;;;;4.47;1.23;;;;;;;;;;5092769;28;20127;-72
2023/07/15 09:25:17;;;;;;;3.22;1.30;;;;;;;;;;5092716;28;20036;-71
2023/07/15 09:27:43;;;;;;;3.85;1.40;;;;;;;;;;5093458;28;20097;-70
2023/07/15 09:30:10;;;;;;;2.50;1.10;;;;;;;;;;5093971;28;20036;-71
2023/07/15 09:32:37;;;;;;;3.17;1.00;;;;;;;;;;5093757;28;20036;-72
2023/07/15 09:35:04;;;;;;;2.72;1.27;;;;;;;;;;5092489;28;20051;-71
2023/07/15 09:37:33;;;;;;;4.40;1.50;;;;;;;;;;5092343;28;20047;-71
2023/07/15 09:40:00;;;;;;;16.65;1.98;;;;;;;;;;5092391;28;20040;-71
2023/07/15 09:42:29;;;;;;;17.45;1.95;;;;;;;;;;5092177;28;20145;-72
2023/07/15 09:44:55;;;;;;;3.85;1.30;;;;;;;;;;5092548;28;20043;-71
2023/07/15 09:47:23;;;;;;;1.83;1.13;;;;;;;;;;5075410;28;20469;-72
2023/07/15 09:49:49;;;;;;;5.57;1.58;;;;;;;;;;5093725;28;20040;-71
2023/07/15 09:52:15;;;;;;;2.85;1.30;;;;;;;;;;5093621;28;20043;-71
2023/07/15 09:54:42;;;;;;;2.75;1.30;;;;;;;;;;5091763;28;20070;-70
2023/07/15 09:57:17;;;;;;;3.88;1.38;;;;;;;;;;5091906;28;20059;-72
2023/07/15 09:59:43;;;;;;;;;;;;;;;;;;5089189;28;20387;-71
2023/07/15 10:02:15;;;;;;;4.05;1.67;;;;;;;;;;5092002;28;19922;-71
2023/07/15 10:04:45;;;;;;;6.68;1.70;;;;;;;;;;5091349;28;20044;-71
2023/07/15 10:07:12;;;;;;;2.83;1.65;;;;;;;;;;5093097;28;20051;-71
2023/07/15 10:09:38;;;;;;;5.78;1.90;;;;;;;;;;5092477;28;20039;-73
2023/07/15 10:12:05;;;;;;;4.43;2.10;;;;;;;;;;5075354;28;20501;-72
2023/07/15 10:14:32;;;;;;;4.15;1.80;;;;;;;;;;5092634;28;20050;-71
2023/07/15 10:17:08;;;;;;;7.57;1.88;;;;;;;;;;5091406;28;20048;-71
2023/07/15 10:19:39;;;;;;;4.03;1.80;;;;;;;;;;5091214;28;20044;-71
2023/07/15 10:22:06;;;;;;;3.92;1.83;;;;;;;;;;5074719;28;20115;-71
2023/07/15 10:24:33;;;;;;;5.65;1.98;;;;;;;;;;5091141;28;20040;-71
2023/07/15 10:27:01;;;;;;;5.30;1.80;;;;;;;;;;5092682;28;20036;-71
2023/07/15 10:29:30;;;;;;;4.97;1.98;;;;;;;;;;5091478;28;20124;-69
2023/07/15 10:32:09;;;;;;;3.83;2.17;;;;;;;;;;5093016;28;20036;-71
2023/07/15 10:34:47;;;;;;;6.45;2.15;;;;;;;;;;5074234;28;20040;-72
2023/07/15 10:37:15;;;;;;;5.40;1.92;;;;;;;;;;5091589;28;20048;-71
2023/07/15 10:39:42;;;;;;;4.00;2.10;;;;;;;;;;5091238;28;20126;-71
2023/07/15 10:42:08;;;;;;;5.60;2.30;;;;;;;;;;5092815;28;20075;-71
2023/07/15 10:44:54;;;;;;;2.70;1.65;;;;;;;;;;5090861;28;20047;-71
2023/07/15 10:47:21;;;;;;;2.65;1.80;;;;;;;;;;5091244;28;20079;-72
2023/07/15 10:49:48;;;;;;;5.57;1.80;;;;;;;;;;5092262;28;20539;-72
2023/07/15 10:52:23;;;;;;;5.07;2.00;;;;;;;;;;5091388;28;20474;-71
2023/07/15 10:54:49;;;;;;;2.60;1.67;;;;;;;;;;5090856;28;20047;-72
2023/07/15 10:57:16;;;;;;;2.92;1.77;;;;;;;;;;5091269;28;20400;-72
2023/07/15 10:59:43;;;;;;;3.08;1.90;;;;;;;;;;5090545;28;20129;-71
2023/07/15 11:02:09;;;;;;;3.13;1.70;;;;;;;;;;5092662;28;20050;-70
2023/07/15 11:04:36;;;;;;;4.03;2.10;;;;;;;;;;5091938;28;20456;-72
2023/07/15 11:07:10;;;;;;;9.20;2.15;;;;;;;;;;5090488;28;20515;-71
2023/07/15 11:09:42;;;;;;;3.47;2.03;;;;;;;;;;5090181;28;20130;-72
2023/07/15 11:12:09;;;;;;;4.82;1.98;;;;;;;;;;5091050;28;20071;-70
2023/07/15 11:14:38;;;;;;;9.05;2.20;;;;;;;;;;5090885;28;20044;-71
2023/07/15 11:17:04;;;;;;;20.88;2.92;;;;;;;;;;5092074;28;20052;-71
2023/07/15 11:19:31;;;;;;;4.50;1.95;;;;;;;;;;5090810;28;20040;-71
2023/07/15 11:21:58;;;;;;;6.45;2.28;;;;;;;;;;5090734;28;20076;-70
2023/07/15 11:24:25;;;;;;;3.60;2.03;;;;;;;;;;5090913;28;20046;-71
2023/07/15 11:26:51;;;;;;;5.00;2.20;;;;;;;;;;5090231;28;20050;-70
2023/07/15 11:29:22;;;;;;;5.30;2.30;;;;;;;;;;5091904;28;20040;-71
2023/07/15 11:31:52;;;;;;;3.42;2.30;;;;;;;;;;5091453;28;20032;-71
2023/07/15 11:34:18;;;;;;;4.70;2.10;;;;;;;;;;5092215;28;20040;-71
2023/07/15 11:36:45;;;;;;;3.78;2.03;;;;;;;;;;5090657;28;20070;-71
2023/07/15 11:39:12;;;;;;;3.40;2.00;;;;;;;;;;5091048;28;20397;-71
2023/07/15 11:41:39;;;;;;;5.43;2.17;;;;;;;;;;5090244;28;20036;-72
2023/07/15 11:44:10;;;;;;;4.50;2.00;;;;;;;;;;5073784;28;20036;-71
2023/07/15 11:46:37;;;;;;;4.60;2.20;;;;;;;;;;5090917;28;20370;-71
2023/07/15 11:49:03;;;;;;;4.60;2.20;;;;;;;;;;5090354;28;20036;-70
2023/07/15 11:51:31;;;;;;;3.55;2.15;;;;;;;;;;5091842;28;20460;-70
2023/07/15 11:53:57;;;;;;;4.63;2.38;;;;;;;;;;5073363;28;20036;-70
2023/07/15 11:56:37;;;;;;;3.88;2.33;;;;;;;;;;5090414;28;20036;-71
2023/07/15 11:59:05;;;;;;;5.28;2.50;;;;;;;;;;5090149;28;20132;-71
2023/07/15 12:01:31;;;;;;;4.97;2.53;;;;;;;;;;5091579;28;20039;-70
2023/07/15 12:03:57;;;;;;;4.78;2.22;;;;;;;;;;5090255;28;20123;-71
2023/07/15 12:06:24;;;;;;;2.78;2.22;;;;;;;;;;5073717;28;20040;-71
2023/07/15 12:09:04;;;;;;;3.92;2.38;;;;;;;;;;5091465;28;20051;-70
2023/07/15 12:11:31;;;;;;;6.88;2.30;;;;;;;;;;5090200;28;20048;-71
2023/07/15 12:13:57;;;;;;;5.55;2.28;;;;;;;;;;5073425;28;20036;-71
2023/07/15 12:16:24;;;;;;;5.53;2.10;;;;;;;;;;5089957;28;20064;-71
2023/07/15 12:18:52;;;;;;;3.50;1.73;;;;;;;;;;5090929;28;20131;-71
2023/07/15 12:21:18;;;;;;;5.18;2.20;;;;;;;;;;5093960;28;20076;-71
2023/07/15 12:23:44;;;;;;;7.30;1.60;;;;;;;;;;5093717;28;20474;-72
2023/07/15 12:26:11;;;;;;;16.15;2.15;;;;;;;;;;5093864;28;20101;-70
2023/07/15 12:28:37;;;;;;;14.40;2.05;;;;;;;;;;5093647;28;20036;-69
2023/07/15 12:31:03;;;;;;;4.63;1.50;;;;;;;;;;5094781;28;20039;-71
2023/07/15 12:33:29;;;;;;;2.88;1.45;;;;;;;;;;5076712;28;20123;-71
2023/07/15 12:35:55;;;;;;;6.10;1.75;;;;;;;;;;5076598;28;20036;-70
2023/07/15 12:38:21;;;;;;;3.13;1.48;;;;;;;;;;5095095;28;20048;-71
2023/07/15 12:40:48;;;;;;;2.55;1.50;;;;;;;;;;5076130;28;20036;-70
2023/07/15 12:43:14;;;;;;;4.32;1.60;;;;;;;;;;5094824;28;20040;-70
2023/07/15 12:45:41;;;;;;;4.95;1.73;;;;;;;;;;5093342;28;20047;-69
2023/07/15 12:48:07;;;;;;;10.57;1.80;;;;;;;;;;5094258;28;20213;-71
2023/07/15 12:50:33;;;;;;;4.15;1.70;;;;;;;;;;5093567;28;20504;-71
2023/07/15 12:52:59;;;;;;;3.25;1.60;;;;;;;;;;5094210;28;20043;-70
2023/07/15 12:55:25;;;;;;;3.75;1.98;;;;;;;;;;5094666;28;20435;-71
2023/07/15 12:57:51;;;;;;;2.92;1.65;;;;;;;;;;5093962;28;20082;-70
2023/07/15 13:00:17;;;;;;;5.65;1.77;;;;;;;;;;5094247;28;20032;-70
2023/07/15 13:02:44;;;;;;;20.77;2.20;;;;;;;;;;5094586;28;20550;-70
2023/07/15 13:05:10;;;;;;;4.53;1.83;;;;;;;;;;5079831;28;20072;-72
2023/07/15 13:07:36;;;;;;;16.50;2.22;;;;;;;;;;5076119;28;20044;-71
2023/07/15 13:10:02;;;;;;;10.68;2.10;;;;;;;;;;5092352;28;20036;-70
2023/07/15 13:12:28;;;;;;;3.13;1.85;;;;;;;;;;5092842;28;20048;-71
2023/07/15 13:14:54;;;;;;;4.95;1.88;;;;;;;;;;5092395;28;20032;-72
2023/07/15 13:17:20;;;;;;;4.97;1.95;;;;;;;;;;5093879;28;20048;-71
2023/07/15 13:19:46;;;;;;;4.18;1.95;;;;;;;;;;5092933;28;20520;-71
2023/07/15 13:22:13;;;;;;;3.45;1.80;;;;;;;;;;5093589;28;20040;-71
2023/07/15 13:24:39;;;;;;;3.70;1.90;;;;;;;;;;5093328;28;20389;-71
2023/07/15 13:27:05;;;;;;;6.57;2.00;;;;;;;;;;5093311;28;20076;-72
2023/07/15 13:29:31;;;;;;;4.85;1.88;;;;;;;;;;5092524;28;20039;-72
2023/07/15 13:31:57;;;;;;;5.47;1.90;;;;;;;;;;5092404;28;20111;-72
2023/07/15 13:34:23;;;;;;;5.13;2.00;;;;;;;;;;5092528;28;20052;-73
2023/07/15 13:36:49;;;;;;;5.93;1.90;;;;;;;;;;5093584;28;20040;-71
2023/07/15 13:39:35;;;;;;;5.97;1.90;;;;;;;;;;5092759;28;20472;-71
2023/07/15 13:42:05;;;;;;;5.53;1.88;;;;;;;;;;5092982;28;20047;-72
2023/07/15 13:44:32;;;;;;;6.05;1.98;;;;;;;;;;5092337;28;20101;-72
2023/07/15 13:46:58;;;;;;;7.47;2.42;;;;;;;;;;5093179;28;20501;-72
2023/07/15 13:49:27;;;;;;;3.53;1.73;;;;;;;;;;5092294;28;20115;-72
2023/07/15 13:51:54;;;;;;;4.95;2.10;;;;;;;;;;5093183;28;20038;-71
2023/07/15 13:54:20;;;;;;;12.95;2.15;;;;;;;;;;5092029;28;20032;-72
2023/07/15 13:56:47;;;;;;;6.07;2.03;;;;;;;;;;5093625;28;20115;-71
2023/07/15 13:59:13;;;;;;;5.85;2.00;;;;;;;;;;5092735;28;20093;-71
2023/07/15 14:01:39;;;;;;;10.05;2.25;;;;;;;;;;5091721;28;20040;-72
2023/07/15 14:04:05;;;;;;;6.65;1.95;;;;;;;;;;5091767;28;20051;-74
2023/07/15 14:06:31;;;;;;;5.32;2.10;;;;;;;;;;5093216;28;20497;-73
2023/07/15 14:08:57;;;;;;;11.13;2.20;;;;;;;;;;5092838;28;20391;-73
2023/07/15 14:11:23;;;;;;;3.92;1.90;;;;;;;;;;5091858;28;20240;-72
2023/07/15 14:13:49;;;;;;;5.55;1.80;;;;;;;;;;5092071;28;20535;-73
2023/07/15 14:16:15;;;;;;;4.30;1.85;;;;;;;;;;5092705;28;20126;-72
2023/07/15 14:18:42;;;;;;;5.68;2.10;;;;;;;;;;5091503;28;20130;-72
2023/07/15 14:21:08;;;;;;;6.63;1.95;;;;;;;;;;5091642;28;20492;-72
2023/07/15 14:23:35;;;;;;;3.85;1.70;;;;;;;;;;5075068;28;20381;-70
2023/07/15 14:26:01;;;;;;;5.43;1.60;;;;;;;;;;5092909;28;20044;-71
2023/07/15 14:28:28;;;;;;;7.22;2.00;;;;;;;;;;5092870;28;20093;-70
2023/07/15 14:30:54;;;;;;;15.93;2.53;;;;;;;;;;5091455;28;20032;-70
2023/07/15 14:33:20;;;;;;;5.55;1.60;;;;;;;;;;5091318;28;20039;-71
2023/07/15 14:35:47;;;;;;;4.15;1.80;;;;;;;;;;5092845;28;20123;-70
2023/07/15 14:38:13;;;;;;;3.67;1.63;;;;;;;;;;5091345;28;20486;-71
2023/07/15 14:40:39;;;;;;;3.15;1.60;;;;;;;;;;5074513;28;20109;-71
2023/07/15 14:43:05;;;;;;;12.57;1.83;;;;;;;;;;5092494;28;20044;-70